createdAt,value
2017-11-03T00:01:52.742Z,23.70
2017-11-03T00:04:20.375Z,26.23
2017-11-03T00:06:47.989Z,24.47
2017-11-03T00:09:15.687Z,24.47
2017-11-03T00:11:43.318Z,25.30
2017-11-03T00:14:11.022Z,25.87
2017-11-03T00:16:38.653Z,24.57
2017-11-03T00:19:06.306Z,24.00
2017-11-03T00:21:34.674Z,24.50
2017-11-03T00:24:03.525Z,26.70
2017-11-03T00:26:31.263Z,26.50
2017-11-03T00:28:58.914Z,25.67
2017-11-03T00:31:26.574Z,27.27
2017-11-03T00:33:54.221Z,26.77
2017-11-03T00:36:21.865Z,28.40
2017-11-03T00:38:49.494Z,26.97
2017-11-03T00:41:17.241Z,27.40
2017-11-03T00:43:44.858Z,26.97
2017-11-03T00:46:12.514Z,27.20
2017-11-03T00:48:40.136Z,28.90
2017-11-03T00:51:07.837Z,27.07
2017-11-03T00:53:35.461Z,30.63
2017-11-03T00:56:03.127Z,28.20
2017-11-03T00:58:30.741Z,27.40
2017-11-03T01:00:58.386Z,24.83
2017-11-03T01:03:25.998Z,26.07
2017-11-03T01:05:53.670Z,26.40
2017-11-03T01:08:21.261Z,26.97
2017-11-03T01:10:48.928Z,26.70
2017-11-03T01:13:16.584Z,27.47
2017-11-03T01:15:44.215Z,27.10
2017-11-03T01:18:11.888Z,24.37
2017-11-03T01:20:39.525Z,26.30
2017-11-03T01:23:07.208Z,26.53
2017-11-03T01:25:34.853Z,24.50
2017-11-03T01:28:02.500Z,25.50
2017-11-03T01:30:30.249Z,24.70
2017-11-03T01:32:57.925Z,26.47
2017-11-03T01:35:25.545Z,25.30
2017-11-03T01:37:56.424Z,26.93
2017-11-03T01:40:24.806Z,26.90
2017-11-03T01:42:53.038Z,24.70
2017-11-03T01:45:20.830Z,28.80
2017-11-03T01:47:48.494Z,26.03
2017-11-03T01:50:16.118Z,25.80
2017-11-03T01:52:43.781Z,25.67
2017-11-03T01:55:11.449Z,23.97
2017-11-03T01:57:39.062Z,25.77
2017-11-03T02:00:06.731Z,26.80
2017-11-03T02:02:34.349Z,24.07
2017-11-03T02:05:01.989Z,24.70
2017-11-03T02:07:29.620Z,24.30
2017-11-03T02:09:57.270Z,23.73
2017-11-03T02:12:24.885Z,23.33
2017-11-03T02:14:52.535Z,25.97
2017-11-03T02:17:20.159Z,25.83
2017-11-03T02:19:47.790Z,25.67
2017-11-03T02:22:15.395Z,25.00
2017-11-03T02:24:43.046Z,26.40
2017-11-03T02:27:10.678Z,24.57
2017-11-03T02:29:38.319Z,24.17
2017-11-03T02:32:05.939Z,24.30
2017-11-03T02:34:33.584Z,25.40
2017-11-03T02:37:01.202Z,23.47
2017-11-03T02:39:28.903Z,25.53
2017-11-03T02:41:56.524Z,23.13
2017-11-03T02:44:24.190Z,25.00
2017-11-03T02:46:51.794Z,22.10
2017-11-03T02:49:19.449Z,25.50
2017-11-03T02:51:47.066Z,24.50
2017-11-03T02:54:14.858Z,23.20
2017-11-03T02:56:42.496Z,24.53
2017-11-03T02:59:10.165Z,25.57
2017-11-03T03:01:37.775Z,24.60
2017-11-03T03:04:05.473Z,26.57
2017-11-03T03:06:33.521Z,23.77
2017-11-03T03:09:05.100Z,24.43
2017-11-03T03:11:32.922Z,22.77
2017-11-03T03:14:00.824Z,24.40
2017-11-03T03:16:28.688Z,23.03
2017-11-03T03:18:56.457Z,24.07
2017-11-03T03:21:24.310Z,23.70
2017-11-03T03:23:52.229Z,25.23
2017-11-03T03:26:20.059Z,22.93
2017-11-03T03:28:47.757Z,24.70
2017-11-03T03:31:15.486Z,24.27
2017-11-03T03:33:43.125Z,24.53
2017-11-03T03:36:10.859Z,24.10
2017-11-03T03:38:38.511Z,24.50
2017-11-03T03:41:06.153Z,23.07
2017-11-03T03:43:33.951Z,22.73
2017-11-03T03:46:01.586Z,21.80
2017-11-03T03:48:29.253Z,23.13
2017-11-03T03:50:56.885Z,24.10
2017-11-03T03:53:24.517Z,22.57
2017-11-03T03:55:52.178Z,22.00
2017-11-03T03:58:19.857Z,22.93
2017-11-03T04:00:47.494Z,23.40
2017-11-03T04:03:15.146Z,22.13
2017-11-03T04:05:42.774Z,22.03
2017-11-03T04:08:10.610Z,22.17
2017-11-03T04:10:38.343Z,22.90
2017-11-03T04:13:06.361Z,21.57
2017-11-03T04:15:34.060Z,23.83
2017-11-03T04:18:02.119Z,22.30
2017-11-03T04:20:32.969Z,21.73
2017-11-03T04:23:00.791Z,20.87
2017-11-03T04:25:33.207Z,20.47
2017-11-03T04:28:00.858Z,22.20
2017-11-03T04:30:28.482Z,20.27
2017-11-03T04:32:56.122Z,21.77
2017-11-03T04:35:23.754Z,22.90
2017-11-03T04:37:51.439Z,22.00
2017-11-03T04:40:19.042Z,21.90
2017-11-03T04:42:46.694Z,21.47
2017-11-03T04:45:14.302Z,20.47
2017-11-03T04:47:41.933Z,23.90
2017-11-03T04:50:09.706Z,22.90
2017-11-03T04:52:37.333Z,23.50
2017-11-03T04:55:05.007Z,20.93
2017-11-03T04:57:32.645Z,22.40
2017-11-03T05:00:00.306Z,21.70
2017-11-03T05:02:27.925Z,24.47
2017-11-03T05:04:55.601Z,22.40
2017-11-03T05:07:23.221Z,22.83
2017-11-03T05:09:50.898Z,22.33
2017-11-03T05:12:18.534Z,21.47
2017-11-03T05:14:46.334Z,23.43
2017-11-03T05:17:13.985Z,22.60
2017-11-03T05:19:41.621Z,34.30
2017-11-03T05:22:09.282Z,26.53
2017-11-03T05:24:36.893Z,24.37
2017-11-03T05:27:04.529Z,22.30
2017-11-03T05:29:32.163Z,21.47
2017-11-03T05:31:59.829Z,23.30
2017-11-03T05:34:27.479Z,21.43
2017-11-03T05:36:55.125Z,23.63
2017-11-03T05:39:22.757Z,24.67
2017-11-03T05:41:50.403Z,23.90
2017-11-03T05:44:18.021Z,28.43
2017-11-03T05:46:45.738Z,22.30
2017-11-03T05:49:13.378Z,22.90
2017-11-03T05:51:41.026Z,23.63
2017-11-03T05:54:08.845Z,23.17
2017-11-03T05:56:36.473Z,23.47
2017-11-03T05:59:04.136Z,22.27
2017-11-03T06:01:31.775Z,24.53
2017-11-03T06:03:59.674Z,23.63
2017-11-03T06:06:27.301Z,22.00
2017-11-03T06:08:54.965Z,22.20
2017-11-03T06:11:22.637Z,22.77
2017-11-03T06:13:50.261Z,23.17
2017-11-03T06:16:17.942Z,23.13
2017-11-03T06:18:45.582Z,24.40
2017-11-03T06:21:13.386Z,24.53
2017-11-03T06:23:40.998Z,25.37
2017-11-03T06:26:08.648Z,25.23
2017-11-03T06:28:36.269Z,24.10
2017-11-03T06:31:03.914Z,24.60
2017-11-03T06:33:31.537Z,24.20
2017-11-03T06:35:59.194Z,25.30
2017-11-03T06:38:26.843Z,24.50
2017-11-03T06:40:54.493Z,26.00
2017-11-03T06:43:22.118Z,25.07
2017-11-03T06:45:49.776Z,24.50
2017-11-03T06:48:17.389Z,24.37
2017-11-03T06:50:45.081Z,23.60
2017-11-03T06:53:12.716Z,21.77
2017-11-03T06:55:40.370Z,24.20
2017-11-03T06:58:07.986Z,25.23
2017-11-03T07:00:35.641Z,23.53
2017-11-03T07:03:03.250Z,25.30
2017-11-03T07:05:30.914Z,24.60
2017-11-03T07:07:58.526Z,26.07
2017-11-03T07:10:26.189Z,25.43
2017-11-03T07:12:53.814Z,21.40
2017-11-03T07:15:22.334Z,23.27
2017-11-03T07:17:49.943Z,20.10
2017-11-03T07:20:17.633Z,24.37
2017-11-03T07:22:45.261Z,22.27
2017-11-03T07:25:12.955Z,21.90
2017-11-03T07:27:40.581Z,21.80
2017-11-03T07:30:08.263Z,22.77
2017-11-03T07:32:35.938Z,23.23
2017-11-03T07:35:03.585Z,22.90
2017-11-03T07:37:31.254Z,22.87
2017-11-03T07:39:58.907Z,24.23
2017-11-03T07:42:26.533Z,22.53
2017-11-03T07:44:54.186Z,21.63
2017-11-03T07:47:21.966Z,23.80
2017-11-03T07:49:49.609Z,20.60
2017-11-03T07:52:17.220Z,22.33
2017-11-03T07:54:44.886Z,22.07
2017-11-03T07:57:12.509Z,22.07
2017-11-03T07:59:40.196Z,23.37
2017-11-03T08:02:07.810Z,22.10
2017-11-03T08:04:35.425Z,23.87
2017-11-03T08:07:03.076Z,23.23
2017-11-03T08:09:30.721Z,23.13
2017-11-03T08:11:58.349Z,23.70
2017-11-03T08:14:25.998Z,23.60
2017-11-03T08:16:53.644Z,22.43
2017-11-03T08:19:21.338Z,25.43
2017-11-03T08:21:49.054Z,21.03
2017-11-03T08:24:16.722Z,21.47
2017-11-03T08:26:44.337Z,23.00
2017-11-03T08:29:11.948Z,24.60
2017-11-03T08:31:39.594Z,24.57
2017-11-03T08:34:07.229Z,22.70
2017-11-03T08:36:34.869Z,22.40
2017-11-03T08:39:02.492Z,23.00
2017-11-03T08:41:30.129Z,23.27
2017-11-03T08:43:57.743Z,23.67
2017-11-03T08:46:25.393Z,25.00
2017-11-03T08:48:53.005Z,22.87
2017-11-03T08:51:20.653Z,23.97
2017-11-03T08:53:48.272Z,23.87
2017-11-03T08:56:15.974Z,22.33
2017-11-03T08:58:43.687Z,20.57
2017-11-03T09:01:11.466Z,21.37
2017-11-03T09:03:39.142Z,23.20
2017-11-03T09:06:06.870Z,22.10
2017-11-03T09:08:34.462Z,22.90
2017-11-03T09:11:02.118Z,24.77
2017-11-03T09:13:29.736Z,22.90
2017-11-03T09:15:57.406Z,23.57
2017-11-03T09:18:25.055Z,24.50
2017-11-03T09:20:52.705Z,23.07
2017-11-03T09:23:20.333Z,21.97
2017-11-03T09:25:48.470Z,22.10
2017-11-03T09:28:16.106Z,21.73
2017-11-03T09:30:43.880Z,23.50
2017-11-03T09:33:11.701Z,25.00
2017-11-03T09:35:39.471Z,24.43
2017-11-03T09:38:07.250Z,22.40
2017-11-03T09:40:34.951Z,23.70
2017-11-03T09:43:06.677Z,19.80
2017-11-03T09:45:36.567Z,21.97
2017-11-03T09:48:04.783Z,23.20
2017-11-03T09:50:32.583Z,24.90
2017-11-03T09:53:00.601Z,25.03
2017-11-03T09:55:28.694Z,21.83
2017-11-03T09:57:56.811Z,24.07
2017-11-03T10:00:25.113Z,23.10
2017-11-03T10:07:57.345Z,21.23
2017-11-03T10:10:25.571Z,23.13
2017-11-03T10:12:53.531Z,24.87
2017-11-03T10:15:22.009Z,22.73
2017-11-03T10:17:50.183Z,23.23
2017-11-03T10:20:18.218Z,22.00
2017-11-03T10:22:50.019Z,25.47
2017-11-03T10:25:17.828Z,23.70
2017-11-03T10:27:45.483Z,23.50
2017-11-03T10:30:13.110Z,25.07
2017-11-03T10:32:40.754Z,25.30
2017-11-03T10:35:08.384Z,23.50
2017-11-03T10:37:36.046Z,22.93
2017-11-03T10:40:03.659Z,23.10
2017-11-03T10:42:31.377Z,21.77
2017-11-03T10:44:59.026Z,21.97
2017-11-03T10:47:26.685Z,24.80
2017-11-03T10:49:54.301Z,22.70
2017-11-03T10:52:21.970Z,22.67
2017-11-03T10:54:49.639Z,22.57
2017-11-03T10:57:17.427Z,23.97
2017-11-03T10:59:45.585Z,21.87
2017-11-03T11:02:16.266Z,22.37
2017-11-03T11:04:44.401Z,21.60
2017-11-03T11:07:14.109Z,22.90
2017-11-03T11:09:42.080Z,22.20
2017-11-03T11:12:10.355Z,21.63
2017-11-03T11:14:40.020Z,20.57
2017-11-03T11:17:08.370Z,22.60
2017-11-03T11:19:39.026Z,20.40
2017-11-03T11:22:06.934Z,20.20
2017-11-03T11:24:34.856Z,21.87
2017-11-03T11:27:02.959Z,21.00
2017-11-03T11:29:30.680Z,19.13
2017-11-03T11:31:58.981Z,19.97
2017-11-03T11:34:26.749Z,18.90
2017-11-03T11:36:54.683Z,16.10
2017-11-03T11:39:22.604Z,17.63
2017-11-03T11:41:50.320Z,17.97
2017-11-03T11:44:24.255Z,16.77
2017-11-03T11:46:58.000Z,16.90
2017-11-03T11:49:27.268Z,17.30
2017-11-03T11:51:55.684Z,16.03
2017-11-03T11:54:23.759Z,17.10
2017-11-03T11:56:52.045Z,14.53
2017-11-03T11:59:20.039Z,16.20
2017-11-03T12:01:48.072Z,15.23
2017-11-03T12:04:15.759Z,15.00
2017-11-03T12:06:43.638Z,15.73
2017-11-03T12:09:16.471Z,14.90
2017-11-03T12:11:44.631Z,14.47
2017-11-03T12:14:12.647Z,13.77
2017-11-03T12:16:42.721Z,13.10
2017-11-03T12:19:11.421Z,13.70
2017-11-03T12:21:39.107Z,13.97
2017-11-03T12:24:06.756Z,11.50
2017-11-03T12:26:34.362Z,13.23
2017-11-03T12:29:02.001Z,12.50
2017-11-03T12:31:29.617Z,13.40
2017-11-03T12:33:57.269Z,11.97
2017-11-03T12:36:24.877Z,11.30
2017-11-03T12:38:52.586Z,12.50
2017-11-03T12:41:20.302Z,13.37
2017-11-03T12:43:48.073Z,12.93
2017-11-03T12:46:15.887Z,11.47
2017-11-03T12:48:43.635Z,11.43
2017-11-03T12:51:11.563Z,11.30
2017-11-03T12:53:39.543Z,10.97
2017-11-03T12:56:07.335Z,12.20
2017-11-03T12:58:35.158Z,11.60
2017-11-03T13:01:02.866Z,12.13
2017-11-03T13:03:30.626Z,12.20
2017-11-03T13:05:58.611Z,12.07
2017-11-03T13:08:26.623Z,14.07
2017-11-03T13:10:54.267Z,12.87
2017-11-03T13:13:21.952Z,13.73
2017-11-03T13:15:49.593Z,13.10
2017-11-03T13:18:17.293Z,12.17
2017-11-03T13:20:44.965Z,11.53
2017-11-03T13:23:12.650Z,11.27
2017-11-03T13:25:40.278Z,12.87
2017-11-03T13:28:07.931Z,13.27
2017-11-03T13:30:35.541Z,13.33
2017-11-03T13:33:03.169Z,12.83
2017-11-03T13:35:30.782Z,12.83
2017-11-03T13:37:58.449Z,12.80
2017-11-03T13:40:26.060Z,13.30
2017-11-03T13:42:53.725Z,13.13
2017-11-03T13:45:21.369Z,12.20
2017-11-03T13:47:49.101Z,12.70
2017-11-03T13:50:16.728Z,11.27
2017-11-03T13:52:44.566Z,11.50
2017-11-03T13:55:12.180Z,11.03
2017-11-03T13:57:39.848Z,11.43
2017-11-03T14:00:07.521Z,10.20
2017-11-03T14:02:35.142Z,13.20
2017-11-03T14:05:02.810Z,12.93
2017-11-03T14:07:30.446Z,11.53
2017-11-03T14:09:58.245Z,11.43
2017-11-03T14:12:25.862Z,11.40
2017-11-03T14:14:53.526Z,13.80
2017-11-03T14:17:21.165Z,10.67
2017-11-03T14:19:48.837Z,12.90
2017-11-03T14:22:16.526Z,11.60
2017-11-03T14:24:44.173Z,10.87
2017-11-03T14:27:11.782Z,9.83
2017-11-03T14:29:39.450Z,10.30
2017-11-03T14:32:07.105Z,14.47
2017-11-03T14:34:34.784Z,11.70
2017-11-03T14:37:02.382Z,11.93
2017-11-03T14:39:30.050Z,11.70
2017-11-03T14:41:57.701Z,11.57
2017-11-03T14:44:25.366Z,10.97
2017-11-03T14:46:52.975Z,13.70
2017-11-03T14:49:20.678Z,11.23
2017-11-03T14:51:48.347Z,11.43
2017-11-03T14:54:15.982Z,10.00
2017-11-03T14:56:43.642Z,12.00
2017-11-03T14:59:11.433Z,11.57
2017-11-03T15:01:39.073Z,12.50
2017-11-03T15:04:06.712Z,10.80
2017-11-03T15:06:34.357Z,11.57
2017-11-03T15:09:02.099Z,11.30
2017-11-03T15:11:29.755Z,9.60
2017-11-03T15:13:57.409Z,10.53
2017-11-03T15:16:25.079Z,12.10
2017-11-03T15:18:52.712Z,11.20
2017-11-03T15:21:20.739Z,11.30
2017-11-03T15:23:48.373Z,10.70
2017-11-03T15:26:16.025Z,11.53
2017-11-03T15:28:43.653Z,12.93
2017-11-03T15:31:11.349Z,10.10
2017-11-03T15:33:38.994Z,12.20
2017-11-03T15:36:06.735Z,11.70
2017-11-03T15:38:34.389Z,12.33
2017-11-03T15:41:02.049Z,54.93
2017-11-03T15:43:29.673Z,22.97
2017-11-03T15:45:57.359Z,30.10
2017-11-03T15:48:24.981Z,13.90
2017-11-03T15:50:52.766Z,14.57
2017-11-03T15:53:20.478Z,13.97
2017-11-03T15:55:48.090Z,13.47
2017-11-03T15:58:15.763Z,12.40
2017-11-03T16:00:43.398Z,11.73
2017-11-03T16:03:11.182Z,12.20
2017-11-03T16:05:38.821Z,11.70
2017-11-03T16:08:06.617Z,9.67
2017-11-03T16:10:34.264Z,11.27
2017-11-03T16:13:02.001Z,11.30
2017-11-03T16:15:29.681Z,11.70
2017-11-03T16:17:57.310Z,10.97
2017-11-03T16:20:24.943Z,13.13
2017-11-03T16:22:52.609Z,12.30
2017-11-03T16:25:20.239Z,11.77
2017-11-03T16:27:47.905Z,12.00
2017-11-03T16:30:15.538Z,11.70
2017-11-03T16:32:43.292Z,13.83
2017-11-03T16:35:10.938Z,10.97
2017-11-03T16:37:38.608Z,11.97
2017-11-03T16:40:06.224Z,9.93
2017-11-03T16:42:33.897Z,10.07
2017-11-03T16:45:01.577Z,11.13
2017-11-03T16:47:29.245Z,50.80
2017-11-03T16:49:56.878Z,50.83
2017-11-03T16:52:24.542Z,17.47
2017-11-03T16:54:52.173Z,13.03
2017-11-03T16:57:19.887Z,13.40
2017-11-03T16:59:47.499Z,12.87
2017-11-03T17:02:15.154Z,13.90
2017-11-03T17:04:42.777Z,10.57
2017-11-03T17:07:10.457Z,11.93
2017-11-03T17:09:38.075Z,12.60
2017-11-03T17:12:05.722Z,11.93
2017-11-03T17:14:33.350Z,11.10
2017-11-03T17:17:01.035Z,11.67
2017-11-03T17:19:28.679Z,12.63
2017-11-03T17:21:56.495Z,12.40
2017-11-03T17:24:24.105Z,13.67
2017-11-03T17:26:51.771Z,13.27
2017-11-03T17:29:19.397Z,12.23
2017-11-03T17:31:47.070Z,12.37
2017-11-03T17:34:14.696Z,11.57
2017-11-03T17:36:42.409Z,12.10
2017-11-03T17:39:10.055Z,11.97
2017-11-03T17:41:37.738Z,11.10
2017-11-03T17:44:05.369Z,20.10
2017-11-03T17:46:33.051Z,67.47
2017-11-03T17:49:00.666Z,14.43
2017-11-03T17:51:28.301Z,12.07
2017-11-03T17:53:56.040Z,13.43
2017-11-03T17:56:23.670Z,12.63
2017-11-03T17:58:51.359Z,12.67
2017-11-03T18:01:19.030Z,10.70
2017-11-03T18:03:46.686Z,10.77
2017-11-03T18:06:14.308Z,11.03
2017-11-03T18:08:41.965Z,9.37
2017-11-03T18:11:09.705Z,9.70
2017-11-03T18:13:37.382Z,7.67
2017-11-03T18:16:05.060Z,8.43
2017-11-03T18:18:32.788Z,7.57
2017-11-03T18:21:00.500Z,7.30
2017-11-03T18:23:28.187Z,6.73
2017-11-03T18:25:55.819Z,8.30
2017-11-03T18:28:23.484Z,7.43
2017-11-03T18:30:51.143Z,5.97
2017-11-03T18:33:18.857Z,6.97
2017-11-03T18:35:46.732Z,8.80
2017-11-03T18:38:14.402Z,7.07
2017-11-03T18:40:42.047Z,9.17
2017-11-03T18:43:09.706Z,9.60
2017-11-03T18:45:37.330Z,7.40
2017-11-03T18:48:05.081Z,11.03
2017-11-03T18:50:32.716Z,9.60
2017-11-03T18:53:00.379Z,7.23
2017-11-03T18:55:28.031Z,7.93
2017-11-03T18:57:55.745Z,8.10
2017-11-03T19:00:23.367Z,8.50
2017-11-03T19:02:51.002Z,7.47
2017-11-03T19:05:18.686Z,9.10
2017-11-03T19:07:46.354Z,8.67
2017-11-03T19:10:14.038Z,9.77
2017-11-03T19:12:41.721Z,10.27
2017-11-03T19:15:09.513Z,10.00
2017-11-03T19:17:37.178Z,9.30
2017-11-03T19:20:04.825Z,10.77
2017-11-03T19:22:32.489Z,9.83
2017-11-03T19:25:00.110Z,9.73
2017-11-03T19:27:27.770Z,10.10
2017-11-03T19:29:55.393Z,9.50
2017-11-03T19:32:23.058Z,10.27
2017-11-03T19:34:50.705Z,9.87
2017-11-03T19:37:18.346Z,8.47
2017-11-03T19:39:45.986Z,8.57
2017-11-03T19:42:13.646Z,8.87
2017-11-03T19:44:41.283Z,8.83
2017-11-03T19:47:08.954Z,8.43
2017-11-03T19:49:36.606Z,9.20
2017-11-03T19:52:04.294Z,9.20
2017-11-03T19:54:31.924Z,9.10
2017-11-03T19:56:59.552Z,9.50
2017-11-03T19:59:27.233Z,10.10
2017-11-03T20:01:54.834Z,9.60
2017-11-03T20:04:22.550Z,10.70
2017-11-03T20:06:50.174Z,9.90
2017-11-03T20:09:17.835Z,9.33
2017-11-03T20:11:45.470Z,10.63
2017-11-03T20:14:13.156Z,9.57
2017-11-03T20:16:40.827Z,10.90
2017-11-03T20:19:08.459Z,11.80
2017-11-03T20:21:36.114Z,13.63
2017-11-03T20:24:03.805Z,12.40
2017-11-03T20:26:31.426Z,12.77
2017-11-03T20:28:59.058Z,12.17
2017-11-03T20:31:26.704Z,12.10
2017-11-03T20:33:54.330Z,12.40
2017-11-03T20:36:22.174Z,12.23
2017-11-03T20:38:49.801Z,14.40
2017-11-03T20:41:17.463Z,14.13
2017-11-03T20:43:45.121Z,20.60
2017-11-03T20:46:12.773Z,19.37
2017-11-03T20:48:40.404Z,13.17
2017-11-03T20:51:08.081Z,12.57
2017-11-03T20:53:35.710Z,12.30
2017-11-03T20:56:03.377Z,13.27
2017-11-03T20:58:31.030Z,12.13
2017-11-03T21:00:58.690Z,13.57
2017-11-03T21:03:26.305Z,12.83
2017-11-03T21:05:53.969Z,13.23
2017-11-03T21:08:21.611Z,11.10
2017-11-03T21:10:49.318Z,15.30
2017-11-03T21:13:16.949Z,12.23
2017-11-03T21:15:44.574Z,11.90
2017-11-03T21:18:12.238Z,12.90
2017-11-03T21:20:39.911Z,12.53
2017-11-03T21:23:07.578Z,13.10
2017-11-03T21:25:35.305Z,12.00
2017-11-03T21:28:02.971Z,13.60
2017-11-03T21:30:30.581Z,57.23
2017-11-03T21:32:58.293Z,13.63
2017-11-03T21:35:25.914Z,13.80
2017-11-03T21:37:53.594Z,13.97
2017-11-03T21:40:21.305Z,16.33
2017-11-03T21:42:49.033Z,15.30
2017-11-03T21:45:16.672Z,12.97
2017-11-03T21:47:44.337Z,12.60
2017-11-03T21:50:12.007Z,14.10
2017-11-03T21:52:39.631Z,15.10
2017-11-03T21:55:07.278Z,14.13
2017-11-03T21:57:34.926Z,14.90
2017-11-03T22:00:02.614Z,13.27
2017-11-03T22:02:30.261Z,14.10
2017-11-03T22:04:57.903Z,13.50
2017-11-03T22:07:25.554Z,14.37
2017-11-03T22:09:53.204Z,14.50
2017-11-03T22:12:20.822Z,13.93
2017-11-03T22:14:48.526Z,14.17
2017-11-03T22:17:16.158Z,48.37
2017-11-03T22:19:43.845Z,16.90
2017-11-03T22:22:11.462Z,15.17
2017-11-03T22:24:39.138Z,15.60
2017-11-03T22:27:06.758Z,16.13
2017-11-03T22:29:34.401Z,14.70
2017-11-03T22:32:02.078Z,15.27
2017-11-03T22:34:29.750Z,15.20
2017-11-03T22:36:57.373Z,13.93
2017-11-03T22:39:25.058Z,14.07
2017-11-03T22:41:52.689Z,14.77
2017-11-03T22:44:20.397Z,14.73
2017-11-03T22:46:48.004Z,13.90
2017-11-03T22:49:15.661Z,14.27
2017-11-03T22:51:43.302Z,15.83
2017-11-03T22:54:10.997Z,13.27
2017-11-03T22:56:38.626Z,14.60
2017-11-03T22:59:06.226Z,16.70
2017-11-03T23:01:33.879Z,16.77
2017-11-03T23:04:01.562Z,14.53
2017-11-03T23:06:29.202Z,15.57
2017-11-03T23:08:56.855Z,16.30
2017-11-03T23:11:24.522Z,14.43
2017-11-03T23:13:52.162Z,14.10
2017-11-03T23:16:19.811Z,14.00
2017-11-03T23:18:47.466Z,15.00
2017-11-03T23:21:15.086Z,15.67
2017-11-03T23:23:42.899Z,14.03
2017-11-03T23:26:10.554Z,15.33
2017-11-03T23:28:38.364Z,15.30
2017-11-03T23:31:06.033Z,16.43
2017-11-03T23:33:33.705Z,14.97
2017-11-03T23:36:01.345Z,15.40
2017-11-03T23:38:28.979Z,15.33
2017-11-03T23:40:56.659Z,14.90
2017-11-03T23:43:24.325Z,15.70
2017-11-03T23:45:51.950Z,14.83
2017-11-03T23:48:19.578Z,16.40
2017-11-03T23:50:47.236Z,15.13
2017-11-03T23:53:15.004Z,15.57
2017-11-03T23:55:42.658Z,15.17
2017-11-03T23:58:10.266Z,14.77
